createdAt,value
2019-05-06T00:02:24.550Z,20.33
2019-05-06T00:04:56.271Z,23.83
2019-05-06T00:07:27.773Z,22.93
2019-05-06T00:09:59.235Z,21.93
2019-05-06T00:12:33.622Z,23.23
2019-05-06T00:15:05.990Z,23.03
2019-05-06T00:17:37.510Z,25.07
2019-05-06T00:20:09.188Z,25.70
2019-05-06T00:22:40.593Z,21.70
2019-05-06T00:25:16.889Z,24.57
2019-05-06T00:28:06.445Z,23.70
2019-05-06T00:30:39.047Z,23.70
2019-05-06T00:33:10.536Z,24.53
2019-05-06T00:35:42.124Z,26.83
2019-05-06T00:38:13.988Z,23.43
2019-05-06T00:40:46.866Z,34.27
2019-05-06T00:43:18.249Z,28.13
2019-05-06T00:45:49.833Z,27.67
2019-05-06T00:48:21.202Z,25.30
2019-05-06T00:50:53.580Z,26.27
2019-05-06T00:53:26.927Z,35.30
2019-05-06T00:55:58.396Z,38.00
2019-05-06T00:58:31.340Z,33.63
2019-05-06T01:01:04.706Z,33.47
2019-05-06T01:03:44.256Z,38.93
2019-05-06T01:06:15.837Z,37.60
2019-05-06T01:08:47.185Z,40.90
2019-05-06T01:11:18.622Z,44.40
2019-05-06T01:13:59.303Z,48.30
2019-05-06T01:16:30.757Z,44.33
2019-05-06T01:19:02.150Z,45.10
2019-05-06T01:21:34.601Z,51.67
2019-05-06T01:24:06.031Z,54.93
2019-05-06T01:26:37.341Z,59.80
2019-05-06T01:29:08.727Z,62.70
2019-05-06T01:31:43.230Z,66.20
2019-05-06T01:34:13.845Z,62.03
2019-05-06T01:36:45.892Z,63.47
2019-05-06T01:39:36.679Z,63.50
2019-05-06T01:42:21.340Z,64.60
2019-05-06T01:44:54.951Z,67.33
2019-05-06T01:47:26.282Z,70.43
2019-05-06T01:49:57.994Z,74.47
2019-05-06T01:52:29.672Z,76.53
2019-05-06T01:55:00.988Z,69.90
2019-05-06T01:57:33.774Z,73.70
2019-05-06T02:00:07.474Z,79.67
2019-05-06T02:02:40.435Z,81.37
2019-05-06T02:05:13.819Z,81.10
2019-05-06T02:07:45.953Z,84.53
2019-05-06T02:10:17.287Z,81.37
2019-05-06T02:12:48.793Z,84.27
2019-05-06T02:15:20.850Z,90.00
2019-05-06T02:17:52.298Z,91.17
2019-05-06T02:20:24.637Z,90.43
2019-05-06T02:23:04.209Z,92.80
2019-05-06T02:25:45.535Z,92.17
2019-05-06T02:28:18.370Z,90.30
2019-05-06T02:31:14.989Z,85.17
2019-05-06T02:34:05.424Z,84.87
2019-05-06T02:37:02.029Z,90.57
2019-05-06T02:39:34.135Z,76.10
2019-05-06T02:42:08.561Z,78.00
2019-05-06T02:44:40.155Z,81.43
2019-05-06T02:47:45.854Z,88.67
2019-05-06T02:50:20.378Z,74.87
2019-05-06T02:52:53.678Z,77.53
2019-05-06T02:55:25.005Z,81.47
2019-05-06T02:57:56.477Z,80.83
2019-05-06T03:00:28.050Z,78.40
2019-05-06T03:02:59.410Z,82.80
2019-05-06T03:05:33.285Z,87.93
2019-05-06T03:08:04.054Z,78.80
2019-05-06T03:10:39.102Z,76.33
2019-05-06T03:13:10.202Z,78.00
2019-05-06T03:15:43.832Z,71.97
2019-05-06T03:18:15.374Z,73.97
2019-05-06T03:20:58.349Z,63.97
2019-05-06T03:23:34.489Z,78.00
2019-05-06T03:26:06.666Z,62.50
2019-05-06T03:28:37.606Z,66.83
2019-05-06T03:31:08.951Z,63.07
2019-05-06T03:33:59.698Z,65.43
2019-05-06T03:36:24.189Z,57.50
2019-05-06T03:38:46.727Z,51.63
2019-05-06T03:41:18.154Z,61.80
2019-05-06T03:43:49.537Z,58.60
2019-05-06T03:46:28.888Z,59.47
2019-05-06T03:49:03.891Z,54.53
2019-05-06T03:51:36.035Z,59.77
2019-05-06T03:54:07.415Z,59.60
2019-05-06T03:56:43.140Z,57.63
2019-05-06T03:59:16.233Z,52.43
2019-05-06T04:01:47.593Z,60.90
2019-05-06T04:04:19.012Z,50.50
2019-05-06T04:06:53.820Z,54.20
2019-05-06T04:09:25.989Z,52.07
2019-05-06T04:11:58.180Z,45.03
2019-05-06T04:14:34.023Z,50.83
2019-05-06T04:17:13.234Z,55.20
2019-05-06T04:19:49.080Z,54.33
2019-05-06T04:22:26.193Z,57.03
2019-05-06T04:25:33.998Z,60.13
2019-05-06T04:28:34.176Z,56.53
2019-05-06T04:31:08.276Z,52.60
2019-05-06T04:33:39.651Z,57.20
2019-05-06T04:36:13.166Z,57.27
2019-05-06T04:38:44.346Z,50.20
2019-05-06T04:41:16.109Z,49.13
2019-05-06T04:43:47.491Z,53.70
2019-05-06T04:46:19.013Z,54.27
2019-05-06T04:48:50.230Z,57.90
2019-05-06T04:51:24.521Z,52.23
2019-05-06T04:53:54.778Z,58.50
2019-05-06T04:56:26.329Z,55.70
2019-05-06T04:58:58.598Z,54.20
2019-05-06T05:01:30.033Z,55.30
2019-05-06T05:04:03.580Z,51.30
2019-05-06T05:06:34.846Z,58.40
2019-05-06T05:09:07.334Z,47.60
2019-05-06T05:11:53.333Z,48.85
2019-05-06T05:14:33.592Z,47.65
2019-05-06T05:17:18.146Z,47.60
2019-05-06T05:19:49.824Z,48.68
2019-05-06T05:22:21.941Z,47.90
2019-05-06T05:24:55.101Z,45.40
2019-05-06T05:27:26.576Z,44.70
2019-05-06T05:29:58.064Z,43.35
2019-05-06T05:32:29.499Z,50.95
2019-05-06T05:35:02.032Z,45.12
2019-05-06T05:37:34.328Z,39.85
2019-05-06T05:40:06.734Z,46.83
2019-05-06T05:42:52.224Z,41.68
2019-05-06T05:45:23.804Z,43.87
2019-05-06T05:47:57.123Z,45.38
2019-05-06T05:50:35.288Z,38.63
2019-05-06T05:53:06.817Z,47.53
2019-05-06T05:55:38.290Z,39.92
2019-05-06T05:58:10.002Z,43.85
2019-05-06T06:00:42.580Z,38.78
2019-05-06T06:03:14.110Z,36.90
2019-05-06T06:05:45.408Z,32.75
2019-05-06T06:08:16.788Z,39.05
2019-05-06T06:10:59.453Z,31.82
2019-05-06T06:13:32.039Z,28.00
2019-05-06T06:16:23.277Z,30.95
2019-05-06T06:19:12.854Z,32.20
2019-05-06T06:21:58.300Z,30.02
2019-05-06T06:24:32.368Z,28.75
2019-05-06T06:27:04.281Z,24.30
2019-05-06T06:29:36.065Z,25.20
2019-05-06T06:32:16.289Z,21.00
2019-05-06T06:35:07.345Z,20.72
2019-05-06T06:37:52.342Z,19.40
2019-05-06T06:40:25.596Z,17.87
2019-05-06T06:43:03.128Z,18.17
2019-05-06T06:45:37.411Z,18.05
2019-05-06T06:48:09.018Z,17.70
2019-05-06T06:50:42.513Z,14.30
2019-05-06T06:53:14.344Z,17.50
2019-05-06T06:55:46.246Z,14.35
2019-05-06T06:58:37.092Z,19.65
2019-05-06T07:01:33.623Z,19.77
2019-05-06T07:04:11.269Z,16.27
2019-05-06T07:06:48.506Z,14.33
2019-05-06T07:09:19.855Z,12.68
2019-05-06T07:11:52.582Z,13.00
2019-05-06T07:14:25.012Z,16.55
2019-05-06T07:16:56.437Z,13.30
2019-05-06T07:19:33.275Z,15.00
2019-05-06T07:22:07.014Z,12.88
2019-05-06T07:24:38.150Z,12.73
2019-05-06T07:27:15.134Z,7.70
2019-05-06T07:29:48.242Z,6.90
2019-05-06T07:32:19.470Z,12.05
2019-05-06T07:34:53.092Z,9.73
2019-05-06T07:37:24.220Z,11.18
2019-05-06T07:39:55.648Z,10.83
2019-05-06T07:42:36.761Z,10.88
2019-05-06T07:45:36.789Z,15.78
2019-05-06T07:48:12.823Z,9.38
2019-05-06T07:50:43.963Z,8.40
2019-05-06T07:53:15.317Z,9.33
2019-05-06T07:55:46.939Z,7.30
2019-05-06T07:58:18.354Z,9.13
2019-05-06T08:00:49.824Z,9.58
2019-05-06T08:03:22.253Z,7.62
2019-05-06T08:05:58.679Z,7.03
2019-05-06T08:08:27.658Z,7.80
2019-05-06T08:10:59.152Z,8.40
2019-05-06T08:13:33.526Z,11.20
2019-05-06T08:16:04.958Z,6.67
2019-05-06T08:18:36.450Z,6.72
2019-05-06T08:21:16.329Z,4.30
2019-05-06T08:23:52.122Z,4.80
2019-05-06T08:26:23.371Z,4.58
2019-05-06T08:28:54.939Z,5.42
2019-05-06T08:31:26.204Z,7.15
2019-05-06T08:34:02.630Z,5.85
2019-05-06T08:36:55.774Z,5.20
2019-05-06T08:39:27.110Z,4.03
2019-05-06T08:41:58.617Z,8.50
2019-05-06T08:44:32.258Z,3.42
2019-05-06T08:47:03.406Z,4.55
2019-05-06T08:49:52.859Z,4.35
2019-05-06T08:52:27.688Z,4.62
2019-05-06T08:55:02.355Z,3.80
2019-05-06T08:57:34.771Z,2.95
2019-05-06T09:00:07.962Z,3.58
2019-05-06T09:02:39.453Z,3.65
2019-05-06T09:05:12.209Z,4.12
2019-05-06T09:07:45.299Z,3.40
2019-05-06T09:10:16.806Z,3.67
2019-05-06T09:12:48.382Z,2.90
2019-05-06T09:15:21.996Z,3.72
2019-05-06T09:17:53.425Z,4.65
2019-05-06T09:20:24.673Z,3.35
2019-05-06T09:22:55.940Z,3.20
2019-05-06T09:25:27.988Z,5.83
2019-05-06T09:28:12.968Z,5.15
2019-05-06T09:30:47.107Z,2.27
2019-05-06T09:33:22.527Z,3.52
2019-05-06T09:35:53.985Z,3.22
2019-05-06T09:38:25.507Z,6.42
2019-05-06T09:40:56.779Z,2.67
2019-05-06T09:43:28.168Z,6.42
2019-05-06T09:46:02.149Z,4.67
2019-05-06T09:48:52.778Z,3.22
2019-05-06T09:51:25.819Z,3.02
2019-05-06T09:54:12.884Z,1.72
2019-05-06T09:57:07.541Z,2.83
2019-05-06T09:59:38.877Z,3.65
2019-05-06T10:02:12.388Z,4.10
2019-05-06T10:04:43.841Z,2.92
2019-05-06T10:07:15.359Z,2.45
2019-05-06T10:09:46.893Z,3.90
2019-05-06T10:12:18.397Z,5.15
2019-05-06T10:14:49.948Z,3.20
2019-05-06T10:17:21.470Z,4.03
2019-05-06T10:19:52.915Z,2.83
2019-05-06T10:22:24.328Z,2.90
2019-05-06T10:24:55.836Z,2.85
2019-05-06T10:27:28.429Z,3.65
2019-05-06T10:30:03.461Z,2.58
2019-05-06T10:32:53.917Z,2.92
2019-05-06T10:35:29.474Z,3.02
2019-05-06T10:38:31.463Z,3.25
2019-05-06T10:41:07.715Z,3.42
2019-05-06T10:43:45.371Z,3.65
2019-05-06T10:46:16.844Z,4.45
2019-05-06T10:48:48.729Z,2.87
2019-05-06T10:51:37.383Z,3.83
2019-05-06T10:54:09.194Z,3.10
2019-05-06T10:57:07.907Z,2.87
2019-05-06T10:59:39.447Z,4.42
2019-05-06T11:02:43.016Z,7.15
2019-05-06T11:05:15.597Z,5.47
2019-05-06T11:07:48.894Z,6.62
2019-05-06T11:10:27.692Z,8.75
2019-05-06T11:12:53.846Z,7.42
2019-05-06T11:15:25.433Z,8.60
2019-05-06T11:17:56.909Z,6.25
2019-05-06T11:20:29.341Z,7.10
2019-05-06T11:23:02.064Z,10.28
2019-05-06T11:25:33.582Z,5.20
2019-05-06T11:28:09.547Z,8.68
2019-05-06T11:30:58.997Z,6.20
2019-05-06T11:33:38.075Z,5.67
2019-05-06T11:36:16.283Z,5.78
2019-05-06T11:38:48.539Z,4.65
2019-05-06T11:41:23.315Z,5.58
2019-05-06T11:43:54.346Z,7.70
2019-05-06T11:46:26.025Z,4.62
2019-05-06T11:48:57.275Z,7.65
2019-05-06T11:51:32.966Z,6.40
2019-05-06T11:54:16.459Z,7.55
2019-05-06T11:56:48.793Z,10.18
2019-05-06T11:59:12.985Z,10.20
2019-05-06T12:01:53.418Z,6.70
2019-05-06T12:04:24.527Z,5.92
2019-05-06T12:07:09.972Z,6.35
2019-05-06T12:09:28.852Z,6.55
2019-05-06T12:12:03.299Z,7.35
2019-05-06T12:14:34.966Z,6.62
2019-05-06T12:17:06.672Z,9.55
2019-05-06T12:19:37.995Z,13.60
2019-05-06T12:22:09.482Z,13.13
2019-05-06T12:24:42.873Z,7.42
2019-05-06T12:27:33.158Z,8.45
2019-05-06T12:30:05.941Z,4.33
2019-05-06T12:32:43.304Z,5.92
2019-05-06T12:35:14.561Z,10.15
2019-05-06T12:37:47.623Z,5.05
2019-05-06T12:40:20.198Z,9.18
2019-05-06T12:42:55.845Z,9.50
2019-05-06T12:45:36.848Z,7.00
2019-05-06T12:48:29.516Z,6.40
2019-05-06T12:51:03.196Z,5.90
2019-05-06T12:53:34.846Z,6.25
2019-05-06T12:56:06.499Z,9.88
2019-05-06T12:58:37.912Z,8.55
2019-05-06T13:01:13.344Z,7.03
2019-05-06T13:03:44.509Z,8.08
2019-05-06T13:06:16.225Z,7.92
2019-05-06T13:08:58.934Z,9.08
2019-05-06T13:11:20.971Z,8.23
2019-05-06T13:14:00.163Z,9.15
2019-05-06T13:16:26.085Z,7.60
2019-05-06T13:18:57.407Z,9.30
2019-05-06T13:21:28.724Z,9.13
2019-05-06T13:24:04.796Z,7.50
2019-05-06T13:26:36.100Z,12.20
2019-05-06T13:29:13.137Z,7.42
2019-05-06T13:31:45.181Z,5.33
2019-05-06T13:34:18.119Z,7.78
2019-05-06T13:36:49.523Z,8.43
2019-05-06T13:39:23.489Z,8.18
2019-05-06T13:41:54.048Z,8.00
2019-05-06T13:44:25.392Z,10.08
2019-05-06T13:46:56.834Z,10.50
2019-05-06T13:49:52.182Z,8.83
2019-05-06T13:52:26.969Z,8.68
2019-05-06T13:54:58.372Z,8.38
2019-05-06T13:57:32.197Z,11.43
2019-05-06T14:00:03.868Z,9.03
2019-05-06T14:02:53.131Z,6.90
2019-05-06T14:05:24.763Z,10.75
2019-05-06T14:11:08.554Z,6.20
2019-05-06T14:13:42.051Z,10.23
2019-05-06T14:16:13.387Z,6.70
2019-05-06T14:18:45.155Z,4.97
2019-05-06T14:21:16.694Z,6.90
2019-05-06T14:23:48.296Z,9.73
2019-05-06T14:26:26.108Z,13.95
2019-05-06T14:29:02.327Z,9.05
2019-05-06T14:31:36.882Z,6.53
2019-05-06T14:34:08.334Z,10.25
2019-05-06T14:36:43.354Z,7.50
2019-05-06T14:39:23.904Z,9.70
2019-05-06T14:41:56.410Z,10.50
2019-05-06T14:44:28.317Z,8.25
2019-05-06T14:47:28.124Z,10.65
2019-05-06T14:49:59.497Z,8.98
2019-05-06T14:52:33.366Z,6.42
2019-05-06T14:55:16.303Z,7.87
2019-05-06T14:57:47.891Z,6.92
2019-05-06T15:00:22.909Z,10.65
2019-05-06T15:02:54.195Z,4.05
2019-05-06T15:05:25.807Z,6.27
2019-05-06T15:07:57.253Z,6.85
2019-05-06T15:10:28.487Z,6.25
2019-05-06T15:13:01.984Z,4.28
2019-05-06T15:15:33.060Z,7.40
2019-05-06T15:18:04.402Z,5.08
2019-05-06T15:20:35.998Z,10.95
2019-05-06T15:23:07.387Z,6.25
2019-05-06T15:25:39.014Z,5.95
2019-05-06T15:28:10.397Z,9.25
2019-05-06T15:30:49.276Z,7.83
2019-05-06T15:33:23.336Z,5.17
2019-05-06T15:36:12.835Z,7.60
2019-05-06T15:38:44.357Z,7.83
2019-05-06T15:41:15.647Z,5.08
2019-05-06T15:43:47.443Z,4.75
2019-05-06T15:46:18.703Z,8.10
2019-05-06T15:48:52.686Z,6.12
2019-05-06T15:51:34.631Z,6.78
2019-05-06T15:54:06.603Z,8.40
2019-05-06T15:56:37.926Z,9.73
2019-05-06T15:59:09.246Z,6.03
2019-05-06T16:01:42.637Z,6.50
2019-05-06T16:04:15.437Z,4.45
2019-05-06T16:06:47.082Z,4.85
2019-05-06T16:09:18.622Z,5.78
2019-05-06T16:11:49.904Z,6.08
2019-05-06T16:14:22.983Z,4.65
2019-05-06T16:16:54.732Z,6.30
2019-05-06T16:19:26.263Z,6.17
2019-05-06T16:21:57.606Z,5.03
2019-05-06T16:24:48.293Z,5.05
2019-05-06T16:27:19.895Z,8.53
2019-05-06T16:29:52.995Z,6.35
2019-05-06T16:32:25.880Z,6.72
2019-05-06T16:34:57.336Z,7.78
2019-05-06T16:37:30.125Z,6.28
2019-05-06T16:40:02.794Z,11.57
2019-05-06T16:42:36.590Z,9.75
2019-05-06T16:45:08.857Z,8.85
2019-05-06T16:47:44.410Z,6.92
2019-05-06T16:50:15.008Z,9.65
2019-05-06T16:52:46.800Z,5.78
2019-05-06T16:55:24.535Z,10.90
2019-05-06T16:58:02.540Z,13.48
2019-05-06T17:00:35.716Z,6.08
2019-05-06T17:03:18.404Z,11.15
2019-05-06T17:06:13.769Z,6.83
2019-05-06T17:08:43.634Z,5.05
2019-05-06T17:11:26.813Z,5.35
2019-05-06T17:13:48.223Z,4.05
2019-05-06T17:16:21.939Z,2.87
2019-05-06T17:18:56.361Z,5.85
2019-05-06T17:21:25.906Z,9.55
2019-05-06T17:23:57.429Z,7.50
2019-05-06T17:26:29.069Z,4.72
2019-05-06T17:29:11.053Z,4.45
2019-05-06T17:31:52.786Z,5.12
2019-05-06T17:34:29.221Z,3.42
2019-05-06T17:37:06.715Z,4.15
2019-05-06T17:39:39.403Z,8.08
2019-05-06T17:42:13.683Z,5.15
2019-05-06T17:44:45.020Z,7.35
2019-05-06T17:47:35.512Z,7.75
2019-05-06T17:50:07.184Z,5.25
2019-05-06T17:52:41.977Z,4.80
2019-05-06T17:55:12.655Z,5.25
2019-05-06T17:57:44.488Z,5.05
2019-05-06T18:00:16.853Z,4.05
2019-05-06T18:02:50.063Z,4.80
2019-05-06T18:05:22.841Z,4.85
2019-05-06T18:07:54.672Z,5.45
2019-05-06T18:10:26.188Z,6.53
2019-05-06T18:12:59.814Z,3.67
2019-05-06T18:15:32.208Z,6.10
2019-05-06T18:18:04.608Z,7.28
2019-05-06T18:20:36.179Z,6.00
2019-05-06T18:23:07.789Z,9.85
2019-05-06T18:25:43.025Z,11.35
2019-05-06T18:28:14.407Z,5.65
2019-05-06T18:30:46.156Z,6.30
2019-05-06T18:33:17.644Z,10.45
2019-05-06T18:35:50.652Z,14.90
2019-05-06T18:38:24.790Z,14.68
2019-05-06T18:40:56.085Z,15.95
2019-05-06T18:43:27.483Z,14.98
2019-05-06T18:45:58.950Z,15.60
2019-05-06T18:48:32.855Z,15.63
2019-05-06T18:51:04.232Z,15.53
2019-05-06T18:53:35.758Z,14.60
2019-05-06T18:56:07.279Z,16.27
2019-05-06T18:58:42.743Z,15.35
2019-05-06T19:01:13.723Z,12.00
2019-05-06T19:04:04.433Z,14.68
2019-05-06T19:06:36.027Z,19.10
2019-05-06T19:09:39.435Z,12.82
2019-05-06T19:12:12.749Z,13.40
2019-05-06T19:14:44.903Z,16.70
2019-05-06T19:17:16.566Z,15.20
2019-05-06T19:19:48.366Z,15.40
2019-05-06T19:22:20.062Z,16.15
2019-05-06T19:24:52.195Z,16.27
2019-05-06T19:27:24.927Z,16.60
2019-05-06T19:29:57.898Z,14.93
2019-05-06T19:32:29.600Z,16.85
2019-05-06T19:35:02.744Z,16.35
2019-05-06T19:37:34.797Z,16.02
2019-05-06T19:40:06.728Z,14.55
2019-05-06T19:42:47.031Z,16.82
2019-05-06T19:45:13.060Z,17.02
2019-05-06T19:47:44.728Z,19.37
2019-05-06T19:50:16.349Z,17.73
2019-05-06T19:52:47.953Z,20.40
2019-05-06T19:55:19.631Z,21.12
2019-05-06T19:57:52.599Z,21.07
2019-05-06T20:00:26.036Z,19.57
2019-05-06T20:02:57.474Z,21.33
2019-05-06T20:05:38.257Z,25.08
2019-05-06T20:08:26.314Z,19.92
2019-05-06T20:11:08.274Z,22.02
2019-05-06T20:13:39.906Z,24.80
2019-05-06T20:16:12.436Z,18.75
2019-05-06T20:18:44.613Z,18.60
2019-05-06T20:21:16.108Z,19.07
2019-05-06T20:23:47.949Z,17.73
2019-05-06T20:26:21.448Z,20.95
2019-05-06T20:28:53.109Z,18.17
2019-05-06T20:31:25.962Z,17.42
2019-05-06T20:33:57.703Z,18.90
2019-05-06T20:36:29.161Z,23.70
2019-05-06T20:39:02.513Z,18.95
2019-05-06T20:41:36.172Z,18.92
2019-05-06T20:44:08.239Z,17.90
2019-05-06T20:46:40.245Z,18.37
2019-05-06T20:49:14.509Z,17.50
2019-05-06T20:51:46.100Z,20.65
2019-05-06T20:54:20.507Z,17.75
2019-05-06T20:56:53.047Z,22.07
2019-05-06T20:59:24.866Z,20.27
2019-05-06T21:01:56.682Z,16.77
2019-05-06T21:04:27.990Z,17.67
2019-05-06T21:06:59.979Z,22.22
2019-05-06T21:09:32.079Z,19.02
2019-05-06T21:12:04.191Z,25.27
2019-05-06T21:14:35.884Z,29.40
2019-05-06T21:17:07.462Z,29.48
2019-05-06T21:19:38.948Z,26.48
2019-05-06T21:22:10.445Z,24.55
2019-05-06T21:24:43.076Z,21.48
2019-05-06T21:27:14.877Z,21.82
2019-05-06T21:29:46.494Z,22.75
2019-05-06T21:32:18.799Z,22.55
2019-05-06T21:34:52.454Z,25.00
2019-05-06T21:37:24.361Z,24.32
2019-05-06T21:39:56.989Z,23.40
2019-05-06T21:42:28.829Z,27.13
2019-05-06T21:45:03.092Z,23.70
2019-05-06T21:47:34.169Z,20.72
2019-05-06T21:50:05.946Z,22.50
2019-05-06T21:52:39.869Z,21.77
2019-05-06T21:55:13.110Z,17.50
2019-05-06T21:57:44.400Z,17.60
2019-05-06T22:00:17.257Z,25.48
2019-05-06T22:02:52.837Z,17.87
2019-05-06T22:05:24.050Z,17.35
2019-05-06T22:07:55.616Z,18.65
2019-05-06T22:10:27.160Z,15.85
2019-05-06T22:12:59.014Z,15.80
2019-05-06T22:15:32.310Z,15.98
2019-05-06T22:18:03.812Z,14.73
2019-05-06T22:20:54.340Z,14.65
2019-05-06T22:23:25.771Z,15.20
2019-05-06T22:26:08.604Z,14.60
2019-05-06T22:28:31.898Z,14.40
2019-05-06T22:31:04.180Z,14.35
2019-05-06T22:33:35.889Z,14.85
2019-05-06T22:36:08.404Z,12.80
2019-05-06T22:38:41.956Z,14.43
2019-05-06T22:41:13.238Z,11.68
2019-05-06T22:43:44.948Z,12.55
2019-05-06T22:46:18.239Z,15.25
2019-05-06T22:48:49.523Z,9.68
2019-05-06T22:51:22.875Z,13.83
2019-05-06T22:53:54.534Z,11.97
2019-05-06T22:56:26.111Z,11.70
2019-05-06T22:58:57.517Z,12.03
2019-05-06T23:01:57.096Z,12.30
2019-05-06T23:04:32.313Z,9.95
2019-05-06T23:07:04.828Z,10.82
2019-05-06T23:09:37.546Z,11.45
2019-05-06T23:12:08.960Z,16.52
2019-05-06T23:14:42.052Z,9.95
2019-05-06T23:17:13.890Z,10.70
2019-05-06T23:19:45.700Z,10.43
2019-05-06T23:22:17.227Z,8.78
2019-05-06T23:24:49.715Z,10.45
2019-05-06T23:27:23.253Z,11.48
2019-05-06T23:29:54.460Z,8.63
2019-05-06T23:32:26.865Z,14.25
2019-05-06T23:34:58.228Z,9.20
2019-05-06T23:37:28.540Z,9.95
2019-05-06T23:40:39.012Z,9.58
2019-05-06T23:43:46.626Z,9.75
2019-05-06T23:46:54.289Z,11.70
2019-05-06T23:50:03.537Z,11.63
2019-05-06T23:53:12.641Z,9.70
2019-05-06T23:56:20.126Z,9.28
2019-05-06T23:58:52.424Z,10.23
